createdAt,value
2023-01-19T00:00:34.335Z,99028.19
2023-01-19T00:01:37.153Z,99030.72
2023-01-19T00:02:39.162Z,99037.63
2023-01-19T00:03:42.351Z,99037.63
2023-01-19T00:04:44.107Z,99036.63
2023-01-19T00:05:46.973Z,99035.63
2023-01-19T00:06:50.006Z,99037.97
2023-01-19T00:07:51.855Z,99035.94
2023-01-19T00:08:54.534Z,99044.88
2023-01-19T00:09:56.251Z,99035.78
2023-01-19T00:10:58.974Z,99040.84
2023-01-19T00:12:01.712Z,99042.16
2023-01-19T00:13:03.649Z,99040.69
2023-01-19T00:14:07.853Z,99037.84
2023-01-19T00:15:10.541Z,99044.91
2023-01-19T00:16:13.361Z,99041.19
2023-01-19T00:17:16.064Z,99043.38
2023-01-19T00:18:17.760Z,99045.09
2023-01-19T00:19:20.440Z,99040.69
2023-01-19T00:20:22.100Z,99042.56
2023-01-19T00:21:26.868Z,99037.84
2023-01-19T00:22:28.638Z,99043.22
2023-01-19T00:23:31.274Z,99029.09
2023-01-19T00:24:32.999Z,99030.75
2023-01-19T00:25:35.829Z,99024.72
2023-01-19T00:26:40.338Z,99032.94
2023-01-19T00:27:42.047Z,99036.50
2023-01-19T00:28:45.014Z,99032.94
2023-01-19T00:29:48.131Z,99034.66
2023-01-19T00:30:51.513Z,99033.78
2023-01-19T00:31:54.155Z,99035.97
2023-01-19T00:32:59.553Z,99033.09
2023-01-19T00:34:02.455Z,99047.44
2023-01-19T00:35:04.880Z,99045.28
2023-01-19T00:36:08.323Z,99046.94
2023-01-19T00:37:10.344Z,99047.78
2023-01-19T00:38:13.484Z,99039.69
2023-01-19T00:39:15.551Z,99048.78
2023-01-19T00:40:19.073Z,99050.81
2023-01-19T00:41:40.997Z,99050.47
2023-01-19T00:42:45.247Z,99057.56
2023-01-19T00:43:46.987Z,99048.78
2023-01-19T00:44:51.023Z,99048.63
2023-01-19T00:45:53.588Z,99053.00
2023-01-19T00:46:56.419Z,99045.44
2023-01-19T00:47:58.238Z,99066.16
2023-01-19T00:49:00.938Z,99056.88
2023-01-19T00:50:02.982Z,99050.66
2023-01-19T00:51:06.112Z,99060.75
2023-01-19T00:52:07.861Z,99054.34
2023-01-19T00:53:10.556Z,99056.38
2023-01-19T00:54:12.240Z,99059.41
2023-01-19T00:55:16.355Z,99061.59
2023-01-19T00:56:18.131Z,99066.47
2023-01-19T00:57:20.901Z,99063.72
2023-01-19T00:58:22.834Z,99066.97
2023-01-19T00:59:26.691Z,99063.09
2023-01-19T01:00:30.150Z,99067.47
2023-01-19T01:01:45.446Z,99063.59
2023-01-19T01:02:49.234Z,99062.59
2023-01-19T01:03:53.405Z,99062.94
2023-01-19T01:04:56.755Z,99068.16
2023-01-19T01:05:59.589Z,99063.59
2023-01-19T01:07:01.314Z,99065.94
2023-01-19T01:08:04.154Z,99067.31
2023-01-19T01:09:11.947Z,99061.94
2023-01-19T01:10:18.019Z,99070.84
2023-01-19T01:11:19.692Z,99070.69
2023-01-19T01:12:22.395Z,99073.22
2023-01-19T01:13:27.269Z,99075.06
2023-01-19T01:14:30.547Z,99070.69
2023-01-19T01:15:34.686Z,99070.53
2023-01-19T01:16:37.411Z,99071.53
2023-01-19T01:17:46.640Z,99072.22
2023-01-19T01:18:49.372Z,99064.97
2023-01-19T01:19:51.445Z,99068.50
2023-01-19T01:20:56.234Z,99071.19
2023-01-19T01:21:58.065Z,99073.59
2023-01-19T01:23:01.154Z,99073.88
2023-01-19T01:24:03.166Z,99074.75
2023-01-19T01:25:06.679Z,99075.44
2023-01-19T01:26:09.389Z,99081.13
2023-01-19T01:27:11.862Z,99076.06
2023-01-19T01:28:14.555Z,99082.31
2023-01-19T01:29:16.340Z,99078.13
2023-01-19T01:30:19.879Z,99082.81
2023-01-19T01:31:23.038Z,99082.13
2023-01-19T01:32:25.868Z,99086.50
2023-01-19T01:33:41.092Z,99088.03
2023-01-19T01:34:44.690Z,99087.19
2023-01-19T01:35:46.397Z,99090.91
2023-01-19T01:36:49.222Z,99084.28
2023-01-19T01:37:50.913Z,99089.34
2023-01-19T01:38:53.779Z,99090.91
2023-01-19T01:39:55.541Z,99091.75
2023-01-19T01:40:58.228Z,99097.78
2023-01-19T01:41:59.987Z,99083.81
2023-01-19T01:43:03.094Z,99092.75
2023-01-19T01:44:38.171Z,99088.19
2023-01-19T01:45:42.293Z,99091.03
2023-01-19T01:46:45.466Z,99084.28
2023-01-19T01:47:49.631Z,99086.84
2023-01-19T01:48:55.143Z,99094.59
2023-01-19T01:50:02.464Z,99093.75
2023-01-19T01:51:25.202Z,99086.16
2023-01-19T01:52:29.705Z,99085.28
2023-01-19T01:53:33.213Z,99092.38
2023-01-19T01:54:35.945Z,99082.44
2023-01-19T01:55:41.277Z,99086.66
2023-01-19T01:56:45.652Z,99091.22
2023-01-19T01:57:51.388Z,99079.41
2023-01-19T01:58:54.381Z,99090.19
2023-01-19T01:59:58.044Z,99079.13
2023-01-19T02:01:18.674Z,99087.88
2023-01-19T02:02:41.948Z,99091.59
2023-01-19T02:03:45.396Z,99087.00
2023-01-19T02:04:48.880Z,99088.03
2023-01-19T02:05:52.233Z,99089.91
2023-01-19T02:07:12.453Z,99089.91
2023-01-19T02:08:35.306Z,99086.88
2023-01-19T02:09:56.133Z,99093.09
2023-01-19T02:11:17.022Z,99090.91
2023-01-19T02:12:37.340Z,99097.16
2023-01-19T02:13:43.801Z,99095.63
2023-01-19T02:14:45.514Z,99092.59
2023-01-19T02:15:49.684Z,99092.47
2023-01-19T02:16:51.604Z,99098.69
2023-01-19T02:17:58.438Z,99092.97
2023-01-19T02:19:01.344Z,99100.91
2023-01-19T02:20:03.385Z,99089.09
2023-01-19T02:21:11.464Z,99089.09
2023-01-19T02:22:17.012Z,99099.22
2023-01-19T02:23:44.240Z,99094.47
2023-01-19T02:24:46.216Z,99094.31
2023-01-19T02:25:49.228Z,99093.66
2023-01-19T02:26:51.426Z,99098.22
2023-01-19T02:27:54.630Z,99094.66
2023-01-19T02:28:58.458Z,99099.06
2023-01-19T02:30:03.662Z,99093.66
2023-01-19T02:31:06.384Z,99090.97
2023-01-19T02:32:09.333Z,99104.44
2023-01-19T02:33:11.117Z,99100.72
2023-01-19T02:34:16.325Z,99104.09
2023-01-19T02:35:18.345Z,99102.22
2023-01-19T02:36:24.663Z,99106.94
2023-01-19T02:37:26.902Z,99107.09
2023-01-19T02:38:29.782Z,99105.59
2023-01-19T02:39:36.583Z,99105.59
2023-01-19T02:40:39.978Z,99092.72
2023-01-19T02:41:44.577Z,99098.47
2023-01-19T02:42:49.888Z,99095.59
2023-01-19T02:43:52.928Z,99097.44
2023-01-19T02:44:57.145Z,99099.97
2023-01-19T02:45:58.999Z,99098.28
2023-01-19T02:47:01.751Z,99102.69
2023-01-19T02:48:05.460Z,99103.03
2023-01-19T02:49:08.108Z,99097.50
2023-01-19T02:50:28.661Z,99091.09
2023-01-19T02:51:32.261Z,99096.50
2023-01-19T02:52:34.116Z,99093.94
2023-01-19T02:54:04.740Z,99101.88
2023-01-19T02:55:13.377Z,99095.63
2023-01-19T02:56:47.215Z,99099.34
2023-01-19T02:57:55.032Z,99088.03
2023-01-19T02:59:02.933Z,99097.97
2023-01-19T03:00:17.586Z,99097.66
2023-01-19T03:01:27.061Z,99099.69
2023-01-19T03:02:36.194Z,99093.44
2023-01-19T03:03:46.260Z,99098.50
2023-01-19T03:04:57.743Z,99099.34
2023-01-19T03:06:05.228Z,99093.78
2023-01-19T03:07:10.436Z,99093.78
2023-01-19T03:08:17.321Z,99087.88
2023-01-19T03:09:26.593Z,99087.00
2023-01-19T03:10:32.811Z,99088.34
2023-01-19T03:11:40.336Z,99081.13
2023-01-19T03:12:45.292Z,99085.50
2023-01-19T03:13:50.576Z,99081.97
2023-01-19T03:14:57.872Z,99085.66
2023-01-19T03:16:04.838Z,99081.97
2023-01-19T03:17:07.830Z,99087.00
2023-01-19T03:18:12.622Z,99090.19
2023-01-19T03:19:19.179Z,99092.91
2023-01-19T03:20:24.678Z,99091.91
2023-01-19T03:21:28.001Z,99089.19
2023-01-19T03:22:30.915Z,99081.13
2023-01-19T03:23:34.200Z,99085.66
2023-01-19T03:24:40.059Z,99089.19
2023-01-19T03:25:44.602Z,99088.53
2023-01-19T03:26:50.439Z,99088.91
2023-01-19T03:27:54.164Z,99079.78
2023-01-19T03:28:57.700Z,99089.03
2023-01-19T03:30:01.416Z,99086.84
2023-01-19T03:31:07.521Z,99091.75
2023-01-19T03:32:12.569Z,99087.34
2023-01-19T03:33:17.572Z,99091.91
2023-01-19T03:34:22.185Z,99088.69
2023-01-19T03:35:25.972Z,99092.75
2023-01-19T03:36:31.859Z,99093.59
2023-01-19T03:37:35.360Z,99088.53
2023-01-19T03:38:38.420Z,99091.75
2023-01-19T03:39:41.906Z,99092.22
2023-01-19T03:40:45.766Z,99096.63
2023-01-19T03:41:49.790Z,99090.91
2023-01-19T03:42:51.777Z,99089.91
2023-01-19T03:43:55.508Z,99090.03
2023-01-19T03:44:58.120Z,99085.16
2023-01-19T03:46:01.955Z,99086.72
2023-01-19T03:47:05.103Z,99084.88
2023-01-19T03:48:08.368Z,99082.66
2023-01-19T03:49:10.228Z,99087.88
2023-01-19T03:50:15.786Z,99085.53
2023-01-19T03:51:19.398Z,99085.38
2023-01-19T03:52:28.999Z,99082.16
2023-01-19T03:53:30.747Z,99090.25
2023-01-19T03:54:33.573Z,99088.91
2023-01-19T03:55:36.001Z,99088.34
2023-01-19T03:56:40.082Z,99093.75
2023-01-19T03:57:41.847Z,99085.84
2023-01-19T03:58:44.559Z,99081.13
2023-01-19T03:59:46.297Z,99087.50
2023-01-19T04:00:49.020Z,99087.88
2023-01-19T04:01:50.750Z,99082.47
2023-01-19T04:02:53.609Z,99093.94
2023-01-19T04:03:55.397Z,99085.88
2023-01-19T04:04:58.107Z,99095.09
2023-01-19T04:05:59.810Z,99088.34
2023-01-19T04:07:02.524Z,99092.25
2023-01-19T04:08:04.281Z,99091.09
2023-01-19T04:09:07.083Z,99090.91
2023-01-19T04:10:12.673Z,99092.28
2023-01-19T04:11:15.440Z,99092.75
2023-01-19T04:12:18.683Z,99104.09
2023-01-19T04:13:21.377Z,99101.22
2023-01-19T04:14:23.136Z,99097.84
2023-01-19T04:15:25.915Z,99104.09
2023-01-19T04:16:27.569Z,99106.59
2023-01-19T04:17:30.269Z,99103.59
2023-01-19T04:18:34.693Z,99103.59
2023-01-19T04:19:37.761Z,99104.44
2023-01-19T04:20:39.594Z,99107.16
2023-01-19T04:21:42.303Z,99110.66
2023-01-19T04:22:44.027Z,99114.38
2023-01-19T04:23:47.098Z,99101.91
2023-01-19T04:24:48.812Z,99112.34
2023-01-19T04:25:51.560Z,99113.19
2023-01-19T04:26:53.528Z,99113.03
2023-01-19T04:27:58.675Z,99106.59
2023-01-19T04:29:00.560Z,99120.63
2023-01-19T04:30:03.778Z,99109.66
2023-01-19T04:31:06.627Z,99117.59
2023-01-19T04:32:09.345Z,99112.53
2023-01-19T04:33:11.049Z,99103.41
2023-01-19T04:34:13.769Z,99102.25
2023-01-19T04:35:16.878Z,99101.41
2023-01-19T04:36:19.638Z,99105.09
2023-01-19T04:37:21.561Z,99106.44
2023-01-19T04:38:24.619Z,99106.28
2023-01-19T04:39:27.464Z,99106.97
2023-01-19T04:40:30.156Z,99108.50
2023-01-19T04:41:32.852Z,99107.31
2023-01-19T04:42:34.803Z,99110.84
2023-01-19T04:43:38.966Z,99116.09
2023-01-19T04:44:40.706Z,99112.41
2023-01-19T04:45:44.756Z,99117.09
2023-01-19T04:46:46.573Z,99109.69
2023-01-19T04:47:49.259Z,99107.16
2023-01-19T04:48:50.989Z,99109.16
2023-01-19T04:49:53.698Z,99107.50
2023-01-19T04:50:55.328Z,99107.31
2023-01-19T04:51:58.171Z,99101.94
2023-01-19T04:53:01.122Z,99106.47
2023-01-19T04:54:04.262Z,99109.22
2023-01-19T04:55:07.463Z,99099.94
2023-01-19T04:56:10.684Z,99108.03
2023-01-19T04:57:12.374Z,99115.28
2023-01-19T04:58:15.792Z,99105.16
2023-01-19T04:59:20.425Z,99115.41
2023-01-19T05:00:23.538Z,99109.22
2023-01-19T05:01:25.313Z,99111.22
2023-01-19T05:02:28.164Z,99114.06
2023-01-19T05:03:30.039Z,99109.50
2023-01-19T05:04:32.778Z,99110.53
2023-01-19T05:05:34.571Z,99117.78
2023-01-19T05:06:37.297Z,99104.31
2023-01-19T05:07:39.158Z,99109.69
2023-01-19T05:08:43.382Z,99117.78
2023-01-19T05:09:46.276Z,99115.59
2023-01-19T05:10:49.450Z,99113.22
2023-01-19T05:11:51.181Z,99116.94
2023-01-19T05:12:53.882Z,99120.81
2023-01-19T05:13:55.528Z,99111.06
2023-01-19T05:14:59.611Z,99119.50
2023-01-19T05:16:01.815Z,99122.19
2023-01-19T05:17:04.776Z,99126.56
2023-01-19T05:18:06.509Z,99121.00
2023-01-19T05:19:09.302Z,99126.25
2023-01-19T05:20:14.958Z,99122.38
2023-01-19T05:21:18.655Z,99121.53
2023-01-19T05:22:20.575Z,99130.47
2023-01-19T05:23:23.213Z,99123.06
2023-01-19T05:24:24.968Z,99116.81
2023-01-19T05:25:27.731Z,99123.56
2023-01-19T05:26:29.434Z,99130.16
2023-01-19T05:27:32.177Z,99123.44
2023-01-19T05:28:34.271Z,99126.81
2023-01-19T05:29:37.094Z,99132.22
2023-01-19T05:30:40.267Z,99123.63
2023-01-19T05:31:43.088Z,99129.69
2023-01-19T05:32:44.838Z,99137.63
2023-01-19T05:33:48.246Z,99132.91
2023-01-19T05:34:51.019Z,99130.88
2023-01-19T05:35:53.022Z,99133.25
2023-01-19T05:36:55.709Z,99137.63
2023-01-19T05:37:57.387Z,99141.69
2023-01-19T05:39:00.313Z,99135.47
2023-01-19T05:40:02.198Z,99137.97
2023-01-19T05:41:04.921Z,99136.13
2023-01-19T05:42:06.621Z,99138.66
2023-01-19T05:43:09.286Z,99134.78
2023-01-19T05:44:11.385Z,99134.47
2023-01-19T05:45:14.288Z,99130.22
2023-01-19T05:46:17.352Z,99133.63
2023-01-19T05:47:20.109Z,99132.41
2023-01-19T05:48:21.980Z,99133.13
2023-01-19T05:49:24.691Z,99145.41
2023-01-19T05:50:26.382Z,99131.91
2023-01-19T05:51:34.879Z,99133.78
2023-01-19T05:52:37.615Z,99136.13
2023-01-19T05:53:39.482Z,99131.56
2023-01-19T05:54:42.184Z,99134.97
2023-01-19T05:55:43.970Z,99140.88
2023-01-19T05:56:46.785Z,99137.16
2023-01-19T05:57:48.438Z,99143.06
2023-01-19T05:58:51.072Z,99146.75
2023-01-19T05:59:52.849Z,99140.91
2023-01-19T06:00:55.724Z,99140.91
2023-01-19T06:01:59.925Z,99145.78
2023-01-19T06:03:03.181Z,99148.50
2023-01-19T06:04:05.726Z,99149.31
2023-01-19T06:05:09.059Z,99144.44
2023-01-19T06:06:11.541Z,99151.19
2023-01-19T06:07:14.202Z,99146.09
2023-01-19T06:08:15.928Z,99147.97
2023-01-19T06:09:18.644Z,99149.81
2023-01-19T06:10:20.321Z,99149.16
2023-01-19T06:11:23.017Z,99145.59
2023-01-19T06:12:24.961Z,99147.97
2023-01-19T06:13:27.603Z,99153.88
2023-01-19T06:14:29.272Z,99154.53
2023-01-19T06:15:31.909Z,99156.41
2023-01-19T06:16:33.735Z,99162.66
2023-01-19T06:17:38.030Z,99153.69
2023-01-19T06:18:39.868Z,99158.75
2023-01-19T06:19:42.875Z,99161.47
2023-01-19T06:20:44.753Z,99154.38
2023-01-19T06:21:52.032Z,99157.22
2023-01-19T06:22:57.723Z,99160.59
2023-01-19T06:23:59.418Z,99146.41
2023-01-19T06:25:02.508Z,99155.88
2023-01-19T06:26:04.425Z,99158.41
2023-01-19T06:27:07.070Z,99156.84
2023-01-19T06:28:08.761Z,99163.28
2023-01-19T06:29:12.186Z,99158.72
2023-01-19T06:30:14.597Z,99160.56
2023-01-19T06:31:17.399Z,99164.13
2023-01-19T06:32:19.185Z,99167.66
2023-01-19T06:33:24.109Z,99167.50
2023-01-19T06:34:28.708Z,99165.16
2023-01-19T06:35:31.413Z,99170.00
2023-01-19T06:36:33.170Z,99164.81
2023-01-19T06:37:36.792Z,99178.09
2023-01-19T06:38:39.572Z,99162.41
2023-01-19T06:39:42.288Z,99164.81
2023-01-19T06:40:45.843Z,99162.75
2023-01-19T06:41:47.621Z,99159.56
2023-01-19T06:42:50.287Z,99161.75
2023-01-19T06:43:51.976Z,99165.66
2023-01-19T06:44:54.675Z,99163.28
2023-01-19T06:45:56.774Z,99164.47
2023-01-19T06:47:14.921Z,99168.50
2023-01-19T06:48:19.104Z,99168.66
2023-01-19T06:49:23.118Z,99176.09
2023-01-19T06:50:25.939Z,99176.59
2023-01-19T06:51:29.075Z,99174.75
2023-01-19T06:52:30.801Z,99173.06
2023-01-19T06:53:33.958Z,99176.75
2023-01-19T06:54:35.653Z,99176.44
2023-01-19T06:55:39.242Z,99184.03
2023-01-19T06:56:40.961Z,99186.56
2023-01-19T06:57:44.419Z,99180.84
2023-01-19T06:58:47.072Z,99173.91
2023-01-19T06:59:50.019Z,99180.66
2023-01-19T07:00:52.874Z,99181.00
2023-01-19T07:01:56.143Z,99189.94
2023-01-19T07:02:59.385Z,99184.22
2023-01-19T07:04:01.890Z,99193.31
2023-01-19T07:05:07.468Z,99192.66
2023-01-19T07:06:10.248Z,99193.84
2023-01-19T07:07:12.012Z,99190.81
2023-01-19T07:08:15.670Z,99195.34
2023-01-19T07:09:17.785Z,99192.16
2023-01-19T07:10:20.728Z,99190.97
2023-01-19T07:11:29.590Z,99194.69
2023-01-19T07:12:35.569Z,99200.09
2023-01-19T07:13:39.921Z,99192.66
2023-01-19T07:14:41.677Z,99201.25
2023-01-19T07:15:44.356Z,99197.69
2023-01-19T07:16:47.514Z,99198.03
2023-01-19T07:17:49.332Z,99199.19
2023-01-19T07:18:52.011Z,99207.31
2023-01-19T07:19:53.781Z,99191.94
2023-01-19T07:20:59.976Z,99205.94
2023-01-19T07:22:02.277Z,99209.28
2023-01-19T07:23:05.556Z,99195.81
2023-01-19T07:24:08.447Z,99192.78
2023-01-19T07:25:11.311Z,99204.22
2023-01-19T07:26:15.308Z,99203.22
2023-01-19T07:27:17.055Z,99207.44
2023-01-19T07:28:20.571Z,99208.28
2023-01-19T07:29:22.337Z,99199.34
2023-01-19T07:30:25.117Z,99201.41
2023-01-19T07:31:26.868Z,99206.78
2023-01-19T07:32:29.818Z,99196.16
2023-01-19T07:33:33.047Z,99208.13
2023-01-19T07:34:34.875Z,99209.66
2023-01-19T07:35:37.588Z,99206.44
2023-01-19T07:36:41.846Z,99205.94
2023-01-19T07:37:44.505Z,99207.63
2023-01-19T07:38:47.447Z,99213.69
2023-01-19T07:39:50.135Z,99205.28
2023-01-19T07:40:52.823Z,99211.84
2023-01-19T07:41:54.558Z,99211.47
2023-01-19T07:42:57.212Z,99205.56
2023-01-19T07:43:58.968Z,99208.47
2023-01-19T07:45:01.854Z,99206.94
2023-01-19T07:46:06.003Z,99211.84
2023-01-19T07:47:11.248Z,99207.31
2023-01-19T07:48:13.971Z,99208.66
2023-01-19T07:49:16.607Z,99207.63
2023-01-19T07:50:24.469Z,99209.66
2023-01-19T07:51:27.839Z,99205.44
2023-01-19T07:52:32.013Z,99205.09
2023-01-19T07:53:33.961Z,99211.84
2023-01-19T07:54:36.676Z,99205.94
2023-01-19T07:55:39.375Z,99207.97
2023-01-19T07:56:41.173Z,99209.50
2023-01-19T07:57:43.834Z,99220.44
2023-01-19T07:58:46.840Z,99216.09
2023-01-19T07:59:49.615Z,99215.75
2023-01-19T08:00:51.561Z,99220.84
2023-01-19T08:01:54.438Z,99223.53
2023-01-19T08:02:59.924Z,99213.75
2023-01-19T08:04:02.847Z,99219.50
2023-01-19T08:05:05.048Z,99218.50
2023-01-19T08:06:08.363Z,99206.16
2023-01-19T08:07:10.231Z,99219.47
2023-01-19T08:08:14.379Z,99219.16
2023-01-19T08:09:16.125Z,99224.19
2023-01-19T08:10:18.887Z,99224.38
2023-01-19T08:11:20.608Z,99218.50
2023-01-19T08:12:23.337Z,99222.00
2023-01-19T08:13:26.209Z,99209.00
2023-01-19T08:14:27.941Z,99216.28
2023-01-19T08:15:30.767Z,99229.28
2023-01-19T08:16:32.752Z,99216.16
2023-01-19T08:17:35.459Z,99213.09
2023-01-19T08:18:38.150Z,99216.31
2023-01-19T08:19:41.637Z,99212.59
2023-01-19T08:20:43.432Z,99201.28
2023-01-19T08:21:46.458Z,99206.69
2023-01-19T08:22:48.185Z,99210.59
2023-01-19T08:23:56.067Z,99212.09
2023-01-19T08:24:57.771Z,99214.31
2023-01-19T08:26:00.503Z,99215.66
2023-01-19T08:27:04.000Z,99219.72
2023-01-19T08:28:08.091Z,99200.78
2023-01-19T08:29:09.965Z,99201.13
2023-01-19T08:30:13.298Z,99195.94
2023-01-19T08:31:21.021Z,99204.19
2023-01-19T08:32:25.172Z,99205.72
2023-01-19T08:33:26.897Z,99204.19
2023-01-19T08:34:30.890Z,99197.78
2023-01-19T08:35:33.732Z,99186.28
2023-01-19T08:36:36.513Z,99192.56
2023-01-19T08:37:38.198Z,99203.53
2023-01-19T08:38:43.624Z,99198.97
2023-01-19T08:39:47.665Z,99204.19
2023-01-19T08:40:49.479Z,99204.53
2023-01-19T08:41:52.527Z,99209.75
2023-01-19T08:43:01.032Z,99208.91
2023-01-19T08:44:02.939Z,99204.84
2023-01-19T08:45:06.552Z,99200.13
2023-01-19T08:46:08.438Z,99212.78
2023-01-19T08:47:11.303Z,99216.16
2023-01-19T08:48:13.498Z,99210.94
2023-01-19T08:49:17.128Z,99216.50
2023-01-19T08:50:18.798Z,99215.16
2023-01-19T08:51:21.750Z,99209.38
2023-01-19T08:52:24.738Z,99218.19
2023-01-19T08:53:27.405Z,99216.16
2023-01-19T08:54:29.148Z,99208.72
2023-01-19T08:55:34.728Z,99215.28
2023-01-19T08:56:37.446Z,99218.47
2023-01-19T08:57:39.143Z,99215.25
2023-01-19T08:58:42.861Z,99216.41
2023-01-19T08:59:47.465Z,99220.81
2023-01-19T09:00:52.578Z,99219.97
2023-01-19T09:01:55.416Z,99218.59
2023-01-19T09:02:57.651Z,99218.22
2023-01-19T09:04:00.305Z,99218.91
2023-01-19T09:05:04.530Z,99222.97
2023-01-19T09:06:07.750Z,99215.31
2023-01-19T09:07:09.427Z,99226.13
2023-01-19T09:08:14.073Z,99222.25
2023-01-19T09:09:16.741Z,99218.53
2023-01-19T09:10:19.012Z,99219.88
2023-01-19T09:11:23.130Z,99225.28
2023-01-19T09:12:24.943Z,99222.59
2023-01-19T09:13:27.647Z,99226.09
2023-01-19T09:14:29.469Z,99224.88
2023-01-19T09:15:33.950Z,99231.63
2023-01-19T09:16:36.743Z,99233.16
2023-01-19T09:17:38.465Z,99227.19
2023-01-19T09:18:41.288Z,99230.06
2023-01-19T09:19:43.028Z,99225.28
2023-01-19T09:20:47.896Z,99227.66
2023-01-19T09:21:50.807Z,99218.50
2023-01-19T09:22:52.498Z,99220.97
2023-01-19T09:23:55.684Z,99217.72
2023-01-19T09:24:57.337Z,99224.50
2023-01-19T09:26:02.000Z,99238.28
2023-01-19T09:27:05.161Z,99234.19
2023-01-19T09:28:09.255Z,99225.03
2023-01-19T09:29:12.024Z,99226.00
2023-01-19T09:30:14.597Z,99237.63
2023-01-19T09:31:17.665Z,99225.94
2023-01-19T09:32:19.885Z,99241.88
2023-01-19T09:33:22.698Z,99232.03
2023-01-19T09:34:25.580Z,99238.41
2023-01-19T09:35:28.287Z,99233.97
2023-01-19T09:36:32.443Z,99234.44
2023-01-19T09:37:35.138Z,99231.00
2023-01-19T09:38:37.465Z,99235.03
2023-01-19T09:39:40.255Z,99233.16
2023-01-19T09:40:43.727Z,99230.59
2023-01-19T09:41:50.400Z,99244.69
2023-01-19T09:42:56.915Z,99244.44
2023-01-19T09:44:01.111Z,99246.94
2023-01-19T09:45:06.252Z,99236.34
2023-01-19T09:46:12.698Z,99235.88
2023-01-19T09:47:17.224Z,99241.69
2023-01-19T09:48:31.189Z,99241.31
2023-01-19T09:49:38.017Z,99242.94
2023-01-19T09:50:46.644Z,99236.25
2023-01-19T09:51:50.602Z,99247.03
2023-01-19T09:52:56.447Z,99250.53
2023-01-19T09:54:06.330Z,99243.34
2023-01-19T09:55:12.105Z,99241.91
2023-01-19T09:56:15.663Z,99235.69
2023-01-19T09:57:18.362Z,99241.47
2023-01-19T09:58:22.625Z,99243.56
2023-01-19T09:59:26.780Z,99249.00
2023-01-19T10:00:29.701Z,99236.69
2023-01-19T10:01:48.075Z,99245.13
2023-01-19T10:02:54.572Z,99237.66
2023-01-19T10:04:29.920Z,99239.44
2023-01-19T10:05:35.088Z,99246.00
2023-01-19T10:06:36.899Z,99246.31
2023-01-19T10:08:06.106Z,99252.94
2023-01-19T10:09:14.585Z,99242.28
2023-01-19T10:10:21.417Z,99245.19
2023-01-19T10:11:42.010Z,99247.25
2023-01-19T10:12:55.608Z,99251.47
2023-01-19T10:14:00.109Z,99256.31
2023-01-19T10:15:07.031Z,99258.66
2023-01-19T10:16:31.591Z,99245.88
2023-01-19T10:17:39.990Z,99259.47
2023-01-19T10:18:47.951Z,99252.13
2023-01-19T10:19:51.819Z,99253.34
2023-01-19T10:20:57.723Z,99253.81
2023-01-19T10:22:01.016Z,99254.31
2023-01-19T10:23:06.225Z,99246.34
2023-01-19T10:24:16.059Z,99252.97
2023-01-19T10:25:20.311Z,99236.91
2023-01-19T10:26:25.169Z,99254.31
2023-01-19T10:27:28.745Z,99247.53
2023-01-19T10:28:32.125Z,99249.47
2023-01-19T10:29:39.284Z,99254.88
2023-01-19T10:30:42.860Z,99254.88
2023-01-19T10:31:47.476Z,99256.53
2023-01-19T10:32:50.612Z,99260.19
2023-01-19T10:33:54.149Z,99254.66
2023-01-19T10:34:58.452Z,99259.44
2023-01-19T10:36:05.171Z,99260.63
2023-01-19T10:37:17.594Z,99257.91
2023-01-19T10:38:22.215Z,99246.69
2023-01-19T10:39:25.061Z,99256.69
2023-01-19T10:40:31.187Z,99259.28
2023-01-19T10:41:41.411Z,99251.16
2023-01-19T10:42:43.073Z,99251.16
2023-01-19T10:43:46.741Z,99258.81
2023-01-19T10:44:51.000Z,99248.25
2023-01-19T10:45:52.767Z,99255.19
2023-01-19T10:46:56.930Z,99255.25
2023-01-19T10:48:00.878Z,99250.00
2023-01-19T10:49:03.888Z,99247.50
2023-01-19T10:50:23.955Z,99254.28
2023-01-19T10:51:27.034Z,99254.00
2023-01-19T10:52:31.495Z,99249.66
2023-01-19T10:53:34.368Z,99255.75
2023-01-19T10:54:38.083Z,99250.16
2023-01-19T10:55:40.492Z,99256.84
2023-01-19T10:56:43.481Z,99256.97
2023-01-19T10:57:48.870Z,99233.88
2023-01-19T10:58:50.646Z,99253.84
2023-01-19T10:59:54.721Z,99257.56
2023-01-19T11:01:13.494Z,99262.75
2023-01-19T11:02:19.365Z,99263.78
2023-01-19T11:03:24.082Z,99265.16
2023-01-19T11:04:30.336Z,99264.47
2023-01-19T11:05:36.624Z,99268.03
2023-01-19T11:06:38.371Z,99252.38
2023-01-19T11:07:41.015Z,99255.41
2023-01-19T11:08:44.139Z,99259.84
2023-01-19T11:09:46.994Z,99263.56
2023-01-19T11:10:52.808Z,99261.22
2023-01-19T11:11:56.843Z,99251.81
2023-01-19T11:13:02.355Z,99259.59
2023-01-19T11:14:10.244Z,99258.06
2023-01-19T11:15:22.991Z,99255.56
2023-01-19T11:16:28.550Z,99259.63
2023-01-19T11:17:31.281Z,99259.63
2023-01-19T11:18:34.733Z,99260.47
2023-01-19T11:19:37.427Z,99259.97
2023-01-19T11:20:49.279Z,99267.22
2023-01-19T11:21:52.047Z,99264.22
2023-01-19T11:23:06.173Z,99262.50
2023-01-19T11:24:13.310Z,99260.28
2023-01-19T11:25:31.544Z,99260.75
2023-01-19T11:26:34.690Z,99261.59
2023-01-19T11:27:38.196Z,99254.53
2023-01-19T11:28:45.059Z,99263.19
2023-01-19T11:29:49.569Z,99251.38
2023-01-19T11:30:56.915Z,99249.34
2023-01-19T11:32:11.819Z,99264.06
2023-01-19T11:33:25.201Z,99255.31
2023-01-19T11:34:32.917Z,99254.50
2023-01-19T11:35:37.704Z,99254.66
2023-01-19T11:36:40.503Z,99250.91
2023-01-19T11:37:43.275Z,99256.63
2023-01-19T11:38:46.336Z,99257.53
2023-01-19T11:39:50.534Z,99261.25
2023-01-19T11:40:56.294Z,99254.81
2023-01-19T11:41:59.551Z,99254.50
2023-01-19T11:43:02.610Z,99258.41
2023-01-19T11:44:15.112Z,99254.19
2023-01-19T11:45:18.325Z,99264.69
2023-01-19T11:46:23.993Z,99260.28
2023-01-19T11:47:28.289Z,99251.84
2023-01-19T11:48:34.774Z,99255.38
2023-01-19T11:49:42.535Z,99255.72
2023-01-19T11:50:46.410Z,99250.78
2023-01-19T11:51:53.354Z,99252.69
2023-01-19T11:53:00.446Z,99248.28
2023-01-19T11:54:04.335Z,99242.38
2023-01-19T11:55:12.069Z,99241.66
2023-01-19T11:56:14.771Z,99245.25
2023-01-19T11:57:18.076Z,99240.53
2023-01-19T11:58:20.957Z,99244.78
2023-01-19T11:59:24.893Z,99247.47
2023-01-19T12:00:35.573Z,99248.19
2023-01-19T12:01:45.035Z,99251.25
2023-01-19T12:02:48.802Z,99249.06
2023-01-19T12:03:56.417Z,99241.44
2023-01-19T12:05:01.566Z,99235.16
2023-01-19T12:06:05.840Z,99249.19
2023-01-19T12:07:10.617Z,99246.97
2023-01-19T12:08:15.825Z,99237.66
2023-01-19T12:09:21.060Z,99245.91
2023-01-19T12:10:27.157Z,99246.25
2023-01-19T12:11:33.758Z,99237.66
2023-01-19T12:12:38.355Z,99243.41
2023-01-19T12:13:41.685Z,99246.25
2023-01-19T12:14:48.865Z,99243.41
2023-01-19T12:15:54.510Z,99246.63
2023-01-19T12:17:01.564Z,99240.84
2023-01-19T12:18:05.186Z,99248.44
2023-01-19T12:19:14.469Z,99251.50
2023-01-19T12:20:26.019Z,99247.97
2023-01-19T12:21:28.787Z,99248.75
2023-01-19T12:22:36.354Z,99249.97
2023-01-19T12:23:45.723Z,99259.44
2023-01-19T12:24:53.263Z,99249.13
2023-01-19T12:26:06.390Z,99254.50
2023-01-19T12:27:14.795Z,99249.75
2023-01-19T12:28:18.307Z,99244.34
2023-01-19T12:29:22.793Z,99241.44
2023-01-19T12:30:28.017Z,99247.53
2023-01-19T12:31:29.958Z,99240.28
2023-01-19T12:32:37.431Z,99249.44
2023-01-19T12:33:40.316Z,99239.94
2023-01-19T12:34:44.198Z,99245.69
2023-01-19T12:35:57.236Z,99240.28
2023-01-19T12:37:04.886Z,99246.41